Time;durP1;ratioP1;P1;durP2;ratioP2;P2;SDS_P1;SDS_P2;PMS_P1;PMS_P2;Temp;Humidity;BMP_temperature;BMP_pressure;BME280_temperature;BME280_humidity;BME280_pressure;Samples;Min_cycle;Max_cycle;Signal;HPM_P1;HPM_P2
2021/10/29 00:00:59;;;;;;;67.50;36.65;;;3.60;99.90;;;;;;5035339;28;20045;-77
2021/10/29 00:03:25;;;;;;;61.17;37.72;;;3.60;99.90;;;;;;5034256;28;20070;-76
2021/10/29 00:05:50;;;;;;;61.03;35.25;;;3.50;99.90;;;;;;5034112;28;20064;-76
2021/10/29 00:08:16;;;;;;;65.38;36.97;;;3.40;99.90;;;;;;5034130;28;20458;-77
2021/10/29 00:10:42;;;;;;;64.68;34.13;;;3.30;99.90;;;;;;5034064;28;20525;-76
2021/10/29 00:13:08;;;;;;;70.10;37.95;;;3.30;99.90;;;;;;5034049;28;20125;-77
2021/10/29 00:15:34;;;;;;;70.32;35.95;;;3.20;99.90;;;;;;5035342;28;20021;-76
2021/10/29 00:17:59;;;;;;;67.00;36.05;;;3.10;99.90;;;;;;5033939;28;20486;-77
2021/10/29 00:20:25;;;;;;;83.00;43.42;;;3.00;99.90;;;;;;5033785;28;20029;-76
2021/10/29 00:22:51;;;;;;;66.40;35.45;;;3.00;99.90;;;;;;5032156;28;20102;-77
2021/10/29 00:25:17;;;;;;;69.03;36.17;;;3.00;99.90;;;;;;5033794;28;20025;-76
2021/10/29 00:27:44;;;;;;;64.50;34.65;;;2.90;99.90;;;;;;5033797;28;20033;-77
2021/10/29 00:30:10;;;;;;;62.83;33.67;;;2.90;99.90;;;;;;5033547;28;20034;-76
2021/10/29 00:32:36;;;;;;;61.45;33.65;;;2.90;99.90;;;;;;5031998;28;20120;-77
2021/10/29 00:35:03;;;;;;;60.72;32.30;;;2.90;99.90;;;;;;5034854;28;20096;-76
2021/10/29 00:37:30;;;;;;;59.45;34.95;;;2.90;99.90;;;;;;5034925;28;20018;-76
2021/10/29 00:39:56;;;;;;;60.33;34.95;;;2.90;99.90;;;;;;5034723;28;20065;-76
2021/10/29 00:42:21;;;;;;;59.88;33.97;;;2.90;99.90;;;;;;5033533;28;20146;-76
2021/10/29 00:44:47;;;;;;;57.15;33.25;;;2.90;99.90;;;;;;5033411;28;20025;-77
2021/10/29 00:47:13;;;;;;;64.72;33.72;;;2.80;99.90;;;;;;5033422;28;20028;-77
2021/10/29 00:49:39;;;;;;;57.05;32.00;;;2.80;99.90;;;;;;5034519;28;20021;-76
2021/10/29 00:52:04;;;;;;;60.03;32.70;;;2.80;99.90;;;;;;5033090;28;20018;-77
2021/10/29 00:54:30;;;;;;;58.88;33.55;;;2.70;99.90;;;;;;5033183;28;20021;-76
2021/10/29 00:56:56;;;;;;;60.10;34.25;;;2.70;99.90;;;;;;5033312;28;20021;-77
2021/10/29 00:59:22;;;;;;;60.20;33.13;;;2.70;99.90;;;;;;5033154;28;20024;-76
2021/10/29 01:01:48;;;;;;;52.33;32.38;;;2.60;99.90;;;;;;5032390;28;20056;-77
2021/10/29 01:04:15;;;;;;;64.53;32.80;;;2.60;99.90;;;;;;5034002;28;20400;-76
2021/10/29 01:06:43;;;;;;;58.13;31.00;;;2.60;99.90;;;;;;5032666;28;20025;-76
2021/10/29 01:09:08;;;;;;;55.42;33.50;;;2.50;99.90;;;;;;5032929;28;20028;-76
2021/10/29 01:11:34;;;;;;;54.35;30.48;;;2.50;99.90;;;;;;5032985;28;20021;-76
2021/10/29 01:14:00;;;;;;;57.88;31.42;;;2.50;99.90;;;;;;5032836;28;20041;-77
2021/10/29 01:16:26;;;;;;;61.97;34.15;;;2.50;99.90;;;;;;5032870;28;20026;-77
2021/10/29 01:18:51;;;;;;;53.97;31.88;;;2.40;99.90;;;;;;5033527;28;20030;-76
2021/10/29 01:21:17;;;;;;;51.97;29.67;;;2.40;99.90;;;;;;5034037;28;20475;-76
2021/10/29 01:23:43;;;;;;;51.15;29.90;;;2.40;99.90;;;;;;5034025;28;20038;-76
2021/10/29 01:26:12;;;;;;;55.40;29.83;;;2.30;99.90;;;;;;5032621;28;20104;-76
2021/10/29 01:28:38;;;;;;;58.20;30.63;;;2.30;99.90;;;;;;5033783;28;20032;-76
2021/10/29 01:31:04;;;;;;;56.22;29.98;;;2.30;99.90;;;;;;5028922;28;20060;-76
2021/10/29 01:33:30;;;;;;;50.72;29.70;;;2.30;99.90;;;;;;5013923;28;20041;-76
2021/10/29 01:35:57;;;;;;;49.25;29.08;;;2.20;99.90;;;;;;5012762;28;20551;-77
2021/10/29 01:38:35;;;;;;;53.33;31.50;;;2.10;99.90;;;;;;5015552;28;20503;-76
2021/10/29 01:41:02;;;;;;;52.72;29.70;;;2.10;99.90;;;;;;5032324;28;20037;-77
2021/10/29 01:43:27;;;;;;;51.08;27.77;;;2.10;99.90;;;;;;5033600;28;20100;-77
2021/10/29 01:45:54;;;;;;;53.90;29.00;;;2.10;99.90;;;;;;5032341;28;20490;-77
2021/10/29 01:48:19;;;;;;;46.17;27.10;;;2.00;99.90;;;;;;5032279;28;20068;-76
2021/10/29 01:50:45;;;;;;;49.25;29.23;;;1.90;99.90;;;;;;5032162;28;20053;-76
2021/10/29 01:53:11;;;;;;;50.55;28.45;;;1.90;99.90;;;;;;5033489;28;20057;-77
2021/10/29 01:55:36;;;;;;;53.22;28.95;;;1.90;99.90;;;;;;5033388;28;20501;-76
2021/10/29 01:58:02;;;;;;;51.05;28.08;;;1.80;99.90;;;;;;5032169;28;20026;-76
2021/10/29 02:00:28;;;;;;;52.33;29.65;;;1.80;99.90;;;;;;5031946;28;20045;-77
2021/10/29 02:02:54;;;;;;;51.22;28.77;;;1.80;99.90;;;;;;5015198;28;20399;-76
2021/10/29 02:05:19;;;;;;;47.60;28.05;;;1.70;99.90;;;;;;5013553;28;20049;-76
2021/10/29 02:07:46;;;;;;;49.38;28.23;;;1.80;99.90;;;;;;5013557;28;20105;-76
2021/10/29 02:10:12;;;;;;;49.58;27.33;;;1.70;99.90;;;;;;5012178;28;20026;-76
2021/10/29 02:12:38;;;;;;;47.83;27.13;;;1.70;99.90;;;;;;5012197;28;20391;-76
2021/10/29 02:15:05;;;;;;;48.88;28.00;;;1.60;99.90;;;;;;5013364;28;20037;-76
2021/10/29 02:17:31;;;;;;;49.25;28.90;;;1.60;99.90;;;;;;5013357;28;20022;-76
2021/10/29 02:19:58;;;;;;;49.20;26.80;;;1.60;99.90;;;;;;5011910;28;20022;-76
2021/10/29 02:22:23;;;;;;;46.15;26.75;;;1.50;99.90;;;;;;5015737;28;20024;-76
2021/10/29 02:24:49;;;;;;;46.58;28.00;;;1.50;99.90;;;;;;5031652;28;20025;-76
2021/10/29 02:27:15;;;;;;;49.05;27.58;;;1.50;99.90;;;;;;5031723;28;20049;-76
2021/10/29 02:29:40;;;;;;;45.97;28.05;;;1.50;99.90;;;;;;5032723;28;20475;-76
2021/10/29 02:32:06;;;;;;;49.72;26.67;;;1.40;99.90;;;;;;5030902;28;20087;-76
2021/10/29 02:34:33;;;;;;;45.22;27.52;;;1.40;99.90;;;;;;5031607;28;20021;-76
2021/10/29 02:36:58;;;;;;;46.50;26.83;;;1.40;99.90;;;;;;5031573;28;20187;-76
2021/10/29 02:39:24;;;;;;;49.00;26.30;;;1.40;99.90;;;;;;5031560;28;20112;-76
2021/10/29 02:41:50;;;;;;;48.30;27.98;;;1.40;99.90;;;;;;5032713;28;20495;-76
2021/10/29 02:44:15;;;;;;;49.25;27.20;;;1.40;99.90;;;;;;5031494;28;20029;-76
2021/10/29 02:46:41;;;;;;;52.47;27.35;;;1.30;99.90;;;;;;5031617;28;20120;-76
2021/10/29 02:49:07;;;;;;;45.63;26.58;;;1.30;99.90;;;;;;5031354;28;20036;-76
2021/10/29 02:51:33;;;;;;;52.85;27.65;;;1.20;99.90;;;;;;5032663;28;20052;-77
2021/10/29 02:53:59;;;;;;;47.28;25.88;;;1.20;99.90;;;;;;5016109;28;20113;-76
2021/10/29 02:56:25;;;;;;;44.85;27.55;;;1.20;99.90;;;;;;5012998;28;20126;-76
2021/10/29 02:58:51;;;;;;;50.88;28.55;;;1.10;99.90;;;;;;5014356;28;20440;-76
2021/10/29 03:01:16;;;;;;;49.65;27.35;;;1.10;99.90;;;;;;5026358;28;20037;-76
2021/10/29 03:03:42;;;;;;;48.03;27.17;;;1.10;99.90;;;;;;5032473;28;20383;-76
2021/10/29 03:06:08;;;;;;;52.28;27.15;;;1.00;99.90;;;;;;5031289;28;20479;-77
2021/10/29 03:08:34;;;;;;;46.75;26.08;;;1.00;99.90;;;;;;5032529;28;20025;-76
2021/10/29 03:10:59;;;;;;;48.95;26.75;;;1.00;99.90;;;;;;5031257;28;20013;-77
2021/10/29 03:13:25;;;;;;;42.40;26.17;;;1.00;99.90;;;;;;5031300;28;20468;-76
2021/10/29 03:15:52;;;;;;;47.72;26.58;;;1.00;99.90;;;;;;5032415;28;20076;-77
2021/10/29 03:18:18;;;;;;;52.67;27.45;;;1.00;99.90;;;;;;5031375;28;20075;-76
2021/10/29 03:20:45;;;;;;;49.55;29.67;;;0.90;99.90;;;;;;5032352;28;20391;-76
2021/10/29 03:23:13;;;;;;;47.53;26.52;;;0.90;99.90;;;;;;5030514;28;20112;-76
2021/10/29 03:25:39;;;;;;;45.05;28.92;;;0.90;99.90;;;;;;5031114;28;20083;-76
2021/10/29 03:28:05;;;;;;;47.85;26.80;;;0.90;99.90;;;;;;5027906;28;20018;-76
2021/10/29 03:30:31;;;;;;;46.45;26.65;;;0.90;99.90;;;;;;5016644;28;20060;-76
2021/10/29 03:32:57;;;;;;;46.28;26.98;;;0.80;99.90;;;;;;5014846;28;20025;-76
2021/10/29 03:35:23;;;;;;;60.88;27.85;;;0.80;99.90;;;;;;5015415;28;20043;-76
2021/10/29 03:45:42;;;;;;;53.05;27.23;;;0.70;99.90;;;;;;5016387;28;20053;-76
2021/10/29 03:48:08;;;;;;;47.30;27.45;;;0.70;99.90;;;;;;5014860;28;20021;-76
2021/10/29 03:50:36;;;;;;;49.63;25.63;;;0.60;99.90;;;;;;5014747;28;20120;-76
2021/10/29 03:53:24;;;;;;;54.60;25.05;;;0.60;99.90;;;;;;5014673;28;20026;-76
2021/10/29 03:55:47;;;;;;;52.85;26.65;;;0.60;99.90;;;;;;5015666;28;20057;-76
2021/10/29 03:58:13;;;;;;;54.58;27.73;;;0.60;99.90;;;;;;5014671;28;20432;-77
2021/10/29 04:00:38;;;;;;;59.60;29.45;;;0.50;99.90;;;;;;5014399;28;20072;-76
2021/10/29 04:03:05;;;;;;;46.20;26.38;;;0.60;99.90;;;;;;5014483;28;20030;-77
2021/10/29 04:05:33;;;;;;;54.47;27.95;;;0.60;99.90;;;;;;5015746;28;20015;-76
2021/10/29 04:08:00;;;;;;;48.80;25.90;;;0.60;99.90;;;;;;5015688;28;20037;-76
2021/10/29 04:10:28;;;;;;;55.47;28.38;;;0.50;99.90;;;;;;5015326;28;20501;-76
2021/10/29 04:12:55;;;;;;;54.88;26.38;;;0.50;99.90;;;;;;5014340;28;20022;-76
2021/10/29 04:15:22;;;;;;;54.30;26.50;;;0.50;99.90;;;;;;5014284;28;20026;-76
2021/10/29 04:17:48;;;;;;;59.33;28.10;;;0.50;99.90;;;;;;5014225;28;20034;-77
2021/10/29 04:20:14;;;;;;;48.35;26.35;;;0.50;99.90;;;;;;5015311;28;20041;-76
2021/10/29 04:22:40;;;;;;;51.60;25.88;;;0.50;99.90;;;;;;5014171;28;20105;-76
2021/10/29 04:25:07;;;;;;;50.42;25.52;;;0.40;99.90;;;;;;5015344;28;20045;-76
2021/10/29 04:27:35;;;;;;;49.13;28.80;;;0.40;99.90;;;;;;5030671;28;20022;-76
2021/10/29 04:30:02;;;;;;;56.85;27.00;;;0.30;99.90;;;;;;5029544;28;20068;-76
2021/10/29 04:32:27;;;;;;;54.03;26.80;;;0.30;99.90;;;;;;5032990;28;20017;-76
2021/10/29 04:34:53;;;;;;;48.03;26.08;;;0.30;99.90;;;;;;5016910;28;20396;-76
2021/10/29 04:37:19;;;;;;;47.85;26.15;;;0.30;99.90;;;;;;5022566;28;20033;-77
2021/10/29 04:39:47;;;;;;;48.20;26.70;;;0.30;99.90;;;;;;5033454;28;20014;-77
2021/10/29 04:42:13;;;;;;;49.42;26.52;;;0.30;99.90;;;;;;5033581;28;20449;-76
2021/10/29 04:44:38;;;;;;;44.20;23.88;;;0.30;99.90;;;;;;5033422;28;20025;-76
2021/10/29 04:47:04;;;;;;;50.03;25.38;;;0.30;99.90;;;;;;5033474;28;20040;-76
2021/10/29 04:49:30;;;;;;;45.67;25.75;;;0.30;99.90;;;;;;5034654;28;20018;-76
2021/10/29 04:51:58;;;;;;;51.30;24.50;;;0.30;99.90;;;;;;5034622;28;20022;-76
2021/10/29 04:54:25;;;;;;;44.67;23.55;;;0.20;99.90;;;;;;5033743;28;20075;-76
2021/10/29 04:56:51;;;;;;;47.70;23.27;;;0.30;99.90;;;;;;5033257;28;20037;-76
2021/10/29 04:59:18;;;;;;;47.45;24.52;;;0.20;99.90;;;;;;5027961;28;20030;-76
2021/10/29 05:01:46;;;;;;;55.45;26.95;;;0.20;99.90;;;;;;5033151;28;20045;-76
2021/10/29 05:04:13;;;;;;;45.70;25.23;;;0.10;99.90;;;;;;5032236;28;20030;-76
2021/10/29 05:06:39;;;;;;;47.17;25.42;;;0.10;99.90;;;;;;5034448;28;20025;-76
2021/10/29 05:09:05;;;;;;;55.28;27.23;;;0.00;99.90;;;;;;5032829;28;20025;-76
2021/10/29 05:11:31;;;;;;;51.65;27.45;;;0.00;99.90;;;;;;5032542;28;20104;-76
2021/10/29 05:13:56;;;;;;;52.85;25.27;;;-0.10;99.90;;;;;;5028858;28;20163;-76
2021/10/29 05:16:23;;;;;;;53.00;26.98;;;-0.10;99.90;;;;;;5013256;28;20022;-77
2021/10/29 05:18:48;;;;;;;44.45;24.30;;;-0.10;99.90;;;;;;5029438;28;20542;-77
2021/10/29 05:21:14;;;;;;;51.65;25.23;;;-0.10;99.90;;;;;;5012327;28;20041;-77
2021/10/29 05:23:40;;;;;;;55.33;26.95;;;-0.10;99.90;;;;;;5029075;28;20109;-77
2021/10/29 05:26:06;;;;;;;58.13;26.95;;;-0.10;99.90;;;;;;5011955;28;20084;-77
2021/10/29 05:28:31;;;;;;;55.50;27.05;;;-0.10;99.90;;;;;;5012028;28;20122;-77
2021/10/29 05:30:57;;;;;;;55.47;27.85;;;-0.10;99.90;;;;;;5012388;28;20439;-76
2021/10/29 05:33:23;;;;;;;55.17;27.77;;;-0.10;99.90;;;;;;5033268;28;20036;-77
2021/10/29 05:35:49;;;;;;;50.47;28.50;;;-0.10;99.90;;;;;;5031902;28;20025;-77
2021/10/29 05:38:14;;;;;;;52.67;27.35;;;-0.10;99.90;;;;;;5021986;28;20033;-77
2021/10/29 05:40:40;;;;;;;60.67;28.40;;;-0.10;99.90;;;;;;5026179;28;20040;-77
2021/10/29 05:43:06;;;;;;;46.80;26.10;;;-0.10;99.90;;;;;;5051003;28;20029;-78
2021/10/29 05:45:33;;;;;;;51.33;26.27;;;-0.10;99.90;;;;;;5052219;28;20040;-77
2021/10/29 05:48:03;;;;;;;57.95;26.38;;;-0.10;99.90;;;;;;5050352;28;20069;-77
2021/10/29 05:50:29;;;;;;;52.03;25.55;;;-0.10;99.90;;;;;;5050480;28;20009;-76
2021/10/29 05:52:55;;;;;;;51.55;25.77;;;-0.10;99.90;;;;;;5051453;28;20021;-77
2021/10/29 05:55:21;;;;;;;53.40;28.08;;;-0.10;99.90;;;;;;5041811;28;20021;-77
2021/10/29 05:57:49;;;;;;;57.55;26.67;;;-0.10;99.90;;;;;;5031584;28;20022;-76
2021/10/29 06:00:21;;;;;;;58.55;28.90;;;-0.10;99.90;;;;;;5031390;28;20033;-76
2021/10/29 06:02:47;;;;;;;49.95;25.70;;;-0.10;99.90;;;;;;5031867;28;20029;-77
2021/10/29 06:05:14;;;;;;;53.53;26.20;;;-0.10;99.90;;;;;;5030906;28;20048;-77
2021/10/29 06:07:41;;;;;;;54.03;25.05;;;0.00;99.90;;;;;;5027654;28;20068;-77
2021/10/29 06:10:09;;;;;;;52.30;26.13;;;-0.10;99.90;;;;;;5031262;28;20430;-77
2021/10/29 06:12:37;;;;;;;58.85;26.90;;;0.00;99.90;;;;;;5031370;28;20471;-77
2021/10/29 06:15:05;;;;;;;56.08;28.60;;;0.00;99.90;;;;;;5032420;28;20025;-77
2021/10/29 06:17:31;;;;;;;54.38;27.50;;;0.10;99.90;;;;;;5031229;28;20036;-77
2021/10/29 06:19:57;;;;;;;46.30;25.13;;;0.10;99.90;;;;;;5032551;28;20049;-77
2021/10/29 06:22:28;;;;;;;44.42;24.98;;;0.20;99.90;;;;;;5031602;28;20053;-78
2021/10/29 06:24:54;;;;;;;61.28;28.13;;;0.30;99.90;;;;;;5032032;28;20104;-78
2021/10/29 06:29:48;;;;;;;53.58;25.63;;;0.60;99.90;;;;;;5032820;28;20463;-82
2021/10/29 06:32:15;;;;;;;53.33;26.88;;;0.70;99.90;;;;;;5031646;28;20073;-81
2021/10/29 06:34:42;;;;;;;55.17;26.65;;;0.80;99.90;;;;;;5014427;28;20026;-81
2021/10/29 06:37:14;;;;;;;54.17;25.23;;;0.90;99.90;;;;;;5010922;28;20025;-81
2021/10/29 06:39:39;;;;;;;49.80;26.90;;;1.10;99.90;;;;;;5011717;28;20018;-81
2021/10/29 06:42:09;;;;;;;44.15;24.73;;;1.20;99.90;;;;;;5022875;28;20075;-81
2021/10/29 07:40:51;;;;;;;71.88;36.67;;;4.90;99.90;;;;;;5016100;28;20053;-81
2021/10/29 07:43:36;;;;;;;77.88;41.72;;;5.10;99.90;;;;;;5016234;28;20384;-81
2021/10/29 07:46:04;;;;;;;80.63;41.67;;;5.30;99.90;;;;;;5016178;28;20083;-81
2021/10/29 07:48:32;;;;;;;71.43;39.25;;;5.50;99.90;;;;;;5033928;28;20031;-81
2021/10/29 07:50:59;;;;;;;77.20;39.90;;;5.70;99.90;;;;;;5034349;28;20082;-81
2021/10/29 07:53:25;;;;;;;75.25;40.58;;;6.00;99.90;;;;;;5033524;28;20302;-81
2021/10/29 07:55:51;;;;;;;77.53;40.45;;;6.20;99.90;;;;;;5034335;28;20082;-81
2021/10/29 07:58:17;;;;;;;69.53;37.88;;;6.50;99.90;;;;;;5035579;28;20025;-81
2021/10/29 08:00:42;;;;;;;65.40;37.03;;;6.70;99.90;;;;;;5035379;28;20036;-81
2021/10/29 08:03:08;;;;;;;59.55;33.20;;;7.00;99.90;;;;;;5034539;28;20409;-81
2021/10/29 08:05:36;;;;;;;59.65;32.20;;;7.20;99.90;;;;;;5035528;28;20480;-81
2021/10/29 08:08:02;;;;;;;49.63;27.33;;;7.40;99.90;;;;;;5034213;28;20026;-81
2021/10/29 08:10:29;;;;;;;53.58;31.02;;;7.70;99.90;;;;;;5035378;28;20471;-81
2021/10/29 08:12:55;;;;;;;49.60;28.70;;;8.00;99.90;;;;;;5035279;28;20049;-81
2021/10/29 08:15:20;;;;;;;44.83;27.27;;;8.20;99.90;;;;;;5034066;28;20021;-81
2021/10/29 08:17:46;;;;;;;52.20;31.17;;;8.40;99.90;;;;;;5026417;28;20025;-81
2021/10/29 08:20:15;;;;;;;52.13;29.85;;;8.60;99.90;;;;;;5014110;28;20034;-81
2021/10/29 08:22:41;;;;;;;42.53;26.23;;;8.90;99.90;;;;;;5014180;28;20025;-81
2021/10/29 08:25:08;;;;;;;39.40;24.05;;;9.00;99.90;;;;;;5015331;28;20110;-81
2021/10/29 08:27:34;;;;;;;39.38;22.02;;;9.20;99.90;;;;;;5015228;28;20395;-81
2021/10/29 08:30:00;;;;;;;33.55;19.40;;;9.40;99.90;;;;;;5026227;28;20038;-81
2021/10/29 08:32:26;;;;;;;33.05;20.02;;;9.50;99.90;;;;;;5033788;28;20026;-81
2021/10/29 08:34:52;;;;;;;30.13;19.10;;;9.60;99.90;;;;;;5014803;28;20030;-81
2021/10/29 08:37:18;;;;;;;31.23;18.25;;;9.70;99.90;;;;;;5015438;28;20071;-81
2021/10/29 08:39:44;;;;;;;27.52;16.77;;;9.80;99.90;;;;;;5013716;28;20053;-81
2021/10/29 08:42:10;;;;;;;32.00;17.33;;;10.00;99.90;;;;;;5015006;28;20431;-82
2021/10/29 08:44:36;;;;;;;24.90;16.83;;;10.10;99.50;;;;;;5013720;28;20025;-81
2021/10/29 08:47:04;;;;;;;26.55;17.20;;;10.30;94.70;;;;;;5013711;28;20022;-81
2021/10/29 08:49:32;;;;;;;23.65;14.98;;;10.40;92.20;;;;;;5013595;28;20026;-82
2021/10/29 08:52:00;;;;;;;21.02;13.98;;;10.50;85.00;;;;;;5029667;28;20029;-81
2021/10/29 08:54:26;;;;;;;22.60;15.05;;;10.70;84.00;;;;;;5018655;28;20030;-81
2021/10/29 08:56:53;;;;;;;22.00;13.93;;;10.80;85.10;;;;;;5014521;28;20029;-81
2021/10/29 08:59:29;;;;;;;19.27;12.10;;;10.80;81.30;;;;;;5018078;28;20125;-81
2021/10/29 09:05:11;;;;;;;;;;;11.10;69.00;;;;;;5015550;28;20038;-81
2021/10/29 09:32:35;;;;;;;18.33;11.82;;;12.00;64.40;;;;;;5014405;28;20053;-81
2021/10/29 09:35:09;;;;;;;15.88;11.43;;;12.00;64.10;;;;;;5014037;28;20057;-81
2021/10/29 09:38:12;;;;;;;24.75;12.80;;;12.10;62.90;;;;;;5029650;28;20382;-81
2021/10/29 09:40:54;;;;;;;14.52;10.98;;;12.30;62.70;;;;;;5033326;28;20121;-81
2021/10/29 09:43:23;;;;;;;14.73;9.93;;;12.30;59.90;;;;;;5032538;28;20394;-81
2021/10/29 09:46:03;;;;;;;17.60;9.80;;;12.40;58.10;;;;;;5033387;28;20498;-81
2021/10/29 09:48:40;;;;;;;13.90;9.43;;;12.40;55.40;;;;;;5020521;28;20356;-81
2021/10/29 09:51:10;;;;;;;14.90;8.90;;;12.50;54.30;;;;;;5032250;28;20029;-82
2021/10/29 09:58:57;;;;;;;11.95;9.30;;;12.70;54.30;;;;;;5031025;28;20116;-80
2021/10/29 10:01:31;;;;;;;14.75;9.38;;;12.80;54.00;;;;;;5028673;28;20500;-79
2021/10/29 10:04:00;;;;;;;12.63;9.30;;;12.80;52.80;;;;;;5029887;28;20063;-79
2021/10/29 10:06:30;;;;;;;15.20;9.18;;;12.90;52.20;;;;;;5020282;28;20061;-79
2021/10/29 10:08:58;;;;;;;14.07;9.45;;;13.00;50.00;;;;;;5012308;28;20022;-79
2021/10/29 10:11:29;;;;;;;18.63;9.50;;;13.00;50.40;;;;;;5031898;28;20022;-79
2021/10/29 10:13:57;;;;;;;17.23;10.00;;;13.10;50.90;;;;;;5025235;28;20030;-79
2021/10/29 10:16:27;;;;;;;13.32;8.82;;;13.10;50.50;;;;;;5033033;28;20025;-79
2021/10/29 10:18:55;;;;;;;14.20;8.85;;;13.20;50.90;;;;;;5033057;28;20041;-78
2021/10/29 10:21:23;;;;;;;11.80;9.05;;;13.20;50.00;;;;;;5031819;28;20037;-78
2021/10/29 10:23:52;;;;;;;13.73;9.55;;;13.30;50.10;;;;;;5013206;28;20109;-78
2021/10/29 10:43:17;;;;;;;12.57;8.48;;;13.60;50.10;;;;;;5012869;28;20616;-81
2021/10/29 10:46:09;;;;;;;13.75;9.23;;;13.70;49.70;;;;;;5013596;28;20050;-81
2021/10/29 10:51:43;;;;;;;14.05;9.02;;;13.90;50.50;;;;;;5009082;28;20062;-82
2021/10/29 10:54:45;;;;;;;13.45;8.57;;;14.00;51.60;;;;;;5016247;28;20040;-82
2021/10/29 11:11:13;;;;;;;11.85;8.32;;;14.40;49.20;;;;;;5016254;28;20029;-82
2021/10/29 11:13:45;;;;;;;14.15;8.20;;;14.50;50.30;;;;;;5014950;28;20140;-82
2021/10/29 11:16:27;;;;;;;13.37;8.17;;;14.50;49.30;;;;;;5014980;28;20022;-82
2021/10/29 11:19:06;;;;;;;13.75;8.48;;;14.60;48.30;;;;;;5019749;28;20281;-82
2021/10/29 11:21:35;;;;;;;16.08;9.00;;;14.70;51.20;;;;;;5014450;28;20045;-84
2021/10/29 11:24:06;;;;;;;13.82;8.40;;;14.70;51.60;;;;;;5015868;28;20030;-82
2021/10/29 11:26:41;;;;;;;12.38;7.68;;;14.80;49.40;;;;;;5015269;28;20056;-83
2021/10/29 11:29:08;;;;;;;11.75;7.28;;;14.80;51.10;;;;;;5014268;28;20100;-82
2021/10/29 11:31:41;;;;;;;12.57;8.30;;;14.90;50.10;;;;;;5015795;28;20022;-82
2021/10/29 11:34:12;;;;;;;12.75;7.82;;;14.90;49.00;;;;;;5014949;28;20049;-82
2021/10/29 11:36:40;;;;;;;14.13;8.82;;;15.00;50.70;;;;;;5015909;28;20022;-82
2021/10/29 11:39:09;;;;;;;11.30;7.72;;;15.10;50.80;;;;;;5013853;28;20045;-82
2021/10/29 11:41:37;;;;;;;13.55;8.68;;;15.10;51.40;;;;;;5025106;28;20462;-81
2021/10/29 11:44:10;;;;;;;13.80;8.07;;;15.10;50.80;;;;;;5013849;28;20193;-81
2021/10/29 11:46:36;;;;;;;13.02;8.30;;;15.30;52.00;;;;;;5014278;28;20083;-82
2021/10/29 11:49:24;;;;;;;17.27;8.98;;;15.30;51.40;;;;;;5014346;28;20038;-81
2021/10/29 11:51:51;;;;;;;14.30;8.00;;;15.40;52.30;;;;;;5014301;28;20420;-79
2021/10/29 11:54:25;;;;;;;16.00;8.93;;;15.40;52.70;;;;;;5014997;28;20033;-81
2021/10/29 11:57:26;;;;;;;17.27;8.73;;;15.40;51.70;;;;;;5014208;28;20026;-80
2021/10/29 12:07:38;;;;;;;11.73;7.72;;;15.70;49.20;;;;;;5032699;28;20099;-82
2021/10/29 12:10:08;;;;;;;21.70;8.48;;;15.80;47.80;;;;;;5033137;28;20471;-81
2021/10/29 12:12:37;;;;;;;13.70;7.80;;;15.80;48.70;;;;;;5033507;28;20529;-83
2021/10/29 12:15:13;;;;;;;16.33;8.68;;;15.80;49.60;;;;;;5033361;28;20467;-82
2021/10/29 12:20:30;;;;;;;12.05;7.45;;;15.90;48.60;;;;;;5025738;28;20069;-82
2021/10/29 12:23:01;;;;;;;11.18;7.05;;;16.00;48.40;;;;;;5014972;28;20052;-83
2021/10/29 12:28:07;;;;;;;9.00;6.45;;;16.10;46.40;;;;;;5020840;28;20368;-83
2021/10/29 12:30:46;;;;;;;10.73;6.70;;;16.10;46.30;;;;;;5014113;28;20018;-82
2021/10/29 13:03:42;;;;;;;12.73;7.93;;;16.30;46.40;;;;;;5013624;28;20040;-83
2021/10/29 13:06:08;;;;;;;12.02;7.03;;;16.30;46.80;;;;;;5013964;28;20455;-81
2021/10/29 13:08:39;;;;;;;9.20;4.93;;;16.40;46.30;;;;;;5012943;28;20041;-81
2021/10/29 13:11:06;;;;;;;7.22;6.05;;;16.40;40.90;;;;;;5012666;28;20475;-81
2021/10/29 13:13:54;;;;;;;8.85;5.22;;;16.40;42.10;;;;;;5014248;28;20554;-81
2021/10/29 13:16:20;;;;;;;6.30;5.40;;;16.30;41.80;;;;;;5013185;28;20508;-81
2021/10/29 13:27:21;;;;;;;8.40;6.13;;;16.20;41.80;;;;;;5033111;28;20036;-82
2021/10/29 13:51:56;;;;;;;17.40;9.85;;;16.10;51.70;;;;;;5013659;28;20087;-81
2021/10/29 13:54:43;;;;;;;15.00;8.80;;;16.00;52.10;;;;;;5013721;28;20361;-81
2021/10/29 14:29:29;;;;;;;11.85;8.13;;;15.10;53.60;;;;;;5030963;28;20224;-81
2021/10/29 14:32:05;;;;;;;13.25;8.32;;;15.10;54.10;;;;;;5029130;28;20092;-81
2021/10/29 14:34:41;;;;;;;12.77;8.18;;;15.00;53.80;;;;;;5032151;28;20094;-81
2021/10/29 14:42:32;;;;;;;11.07;7.70;;;14.80;54.30;;;;;;5027664;28;20042;-81
2021/10/29 15:27:33;;;;;;;17.13;10.18;;;12.50;62.00;;;;;;5024915;28;20029;-79
2021/10/29 15:46:23;;;;;;;28.95;14.35;;;11.00;70.80;;;;;;5023346;28;20439;-79
2021/10/29 15:48:54;;;;;;;33.78;22.58;;;10.80;71.20;;;;;;5019557;28;20021;-78
2021/10/29 15:51:20;;;;;;;52.10;26.52;;;10.60;70.80;;;;;;5022507;28;20034;-79
2021/10/29 15:53:46;;;;;;;49.33;27.13;;;10.60;71.40;;;;;;5020982;28;20507;-79
2021/10/29 15:56:25;;;;;;;50.00;28.00;;;10.50;71.60;;;;;;5020520;28;20038;-79
2021/10/29 16:17:15;;;;;;;95.05;50.58;;;9.30;80.20;;;;;;5022130;28;20091;-77
2021/10/29 16:19:45;;;;;;;137.95;68.53;;;9.20;82.90;;;;;;5022709;28;20058;-77
2021/10/29 16:22:24;;;;;;;91.45;45.72;;;9.00;83.70;;;;;;5028552;28;20421;-77
2021/10/29 16:27:20;;;;;;;98.68;51.50;;;8.90;87.60;;;;;;5029116;28;20029;-77
2021/10/29 16:29:48;;;;;;;98.57;50.13;;;8.80;85.60;;;;;;5029319;28;20060;-78
2021/10/29 16:32:17;;;;;;;86.30;47.75;;;8.70;86.00;;;;;;5025498;28;20033;-78
2021/10/29 16:34:43;;;;;;;84.82;46.72;;;8.50;87.20;;;;;;5024000;28;20028;-78
2021/10/29 16:37:09;;;;;;;80.65;46.08;;;8.40;89.10;;;;;;5024953;28;20025;-78
2021/10/29 16:39:34;;;;;;;69.72;34.97;;;8.30;90.20;;;;;;5018490;28;20487;-77
2021/10/29 16:42:00;;;;;;;58.92;34.80;;;8.20;89.50;;;;;;5019871;28;20095;-77
2021/10/29 16:44:26;;;;;;;55.95;32.58;;;8.10;91.20;;;;;;5022134;28;20024;-77
2021/10/29 16:46:51;;;;;;;84.93;43.95;;;8.00;91.90;;;;;;5026127;28;20026;-78
2021/10/29 16:49:22;;;;;;;86.38;45.55;;;7.90;93.10;;;;;;5023602;28;20094;-77
2021/10/29 16:51:48;;;;;;;227.38;97.50;;;7.90;95.90;;;;;;5023760;28;20487;-77
2021/10/29 16:54:13;;;;;;;153.38;65.35;;;7.80;97.20;;;;;;5024114;28;20026;-77
2021/10/29 16:56:39;;;;;;;134.10;70.22;;;7.80;97.00;;;;;;5023170;28;20041;-78
2021/10/29 16:59:05;;;;;;;104.28;52.47;;;7.70;97.50;;;;;;5025579;28;20021;-77
2021/10/29 17:01:31;;;;;;;165.48;73.68;;;7.60;98.30;;;;;;5023595;28;20319;-77
2021/10/29 17:03:56;;;;;;;98.75;56.92;;;7.60;99.60;;;;;;5023367;28;20101;-77
2021/10/29 17:06:23;;;;;;;69.25;38.85;;;7.60;99.90;;;;;;5020562;28;20033;-77
2021/10/29 17:08:49;;;;;;;60.75;32.15;;;7.50;99.90;;;;;;5026153;28;20028;-77
2021/10/29 17:11:15;;;;;;;80.95;41.58;;;7.50;99.90;;;;;;5021130;28;20029;-77
2021/10/29 17:13:41;;;;;;;54.47;28.98;;;7.40;99.90;;;;;;5026550;28;20014;-77
2021/10/29 17:16:08;;;;;;;54.92;30.80;;;7.30;99.90;;;;;;5021031;28;20091;-77
2021/10/29 17:18:34;;;;;;;43.22;23.15;;;7.20;99.90;;;;;;5023359;28;20021;-77
2021/10/29 17:21:03;;;;;;;43.30;23.30;;;7.20;99.90;;;;;;5023695;28;20032;-77
2021/10/29 17:23:29;;;;;;;61.50;32.47;;;7.10;99.90;;;;;;5026008;28;20100;-77
2021/10/29 17:25:55;;;;;;;102.97;52.70;;;7.00;99.90;;;;;;5026769;28;20022;-77
2021/10/29 17:28:21;;;;;;;74.38;41.25;;;6.90;99.90;;;;;;5025904;28;20018;-77
2021/10/29 17:30:46;;;;;;;57.65;33.72;;;6.80;99.90;;;;;;5020510;28;20087;-77
2021/10/29 17:33:12;;;;;;;62.60;34.00;;;6.80;99.90;;;;;;5018735;28;20021;-77
2021/10/29 17:35:38;;;;;;;96.65;49.78;;;6.70;99.90;;;;;;5022835;28;20032;-76
2021/10/29 17:38:03;;;;;;;70.63;38.33;;;6.60;99.90;;;;;;5021782;28;20226;-78
2021/10/29 17:40:29;;;;;;;56.17;30.35;;;6.60;99.90;;;;;;5021482;28;20046;-77
2021/10/29 17:42:55;;;;;;;63.15;32.20;;;6.50;99.90;;;;;;5025528;28;20386;-78
2021/10/29 17:45:21;;;;;;;57.15;28.70;;;6.50;99.90;;;;;;5026859;28;20025;-77
2021/10/29 17:47:46;;;;;;;57.00;29.10;;;6.40;99.90;;;;;;5022934;28;20029;-77
2021/10/29 17:50:14;;;;;;;56.20;31.55;;;6.30;99.90;;;;;;5024694;28;20100;-77
2021/10/29 17:52:40;;;;;;;77.28;43.08;;;6.20;99.90;;;;;;5025828;28;20018;-77
2021/10/29 17:55:06;;;;;;;73.75;42.40;;;6.10;99.90;;;;;;5026966;28;20509;-77
2021/10/29 17:57:31;;;;;;;65.97;36.88;;;6.10;99.90;;;;;;5024219;28;20049;-77
2021/10/29 17:59:57;;;;;;;63.13;32.30;;;6.00;99.90;;;;;;5020394;28;20087;-76
2021/10/29 18:02:24;;;;;;;53.13;31.02;;;6.00;99.90;;;;;;5018564;28;20467;-77
2021/10/29 18:04:51;;;;;;;51.92;30.40;;;6.00;99.90;;;;;;5023141;28;20079;-77